sensor_id;sensor_type;location;lat;lon;timestamp;temperature;humidity
22629;DHT22;11481;53.694;9.910;2024-03-02T00:00:51;11.20;99.90
22629;DHT22;11481;53.694;9.910;2024-03-02T00:03:20;10.20;99.90
22629;DHT22;11481;53.694;9.910;2024-03-02T00:05:50;12.60;99.90
22629;DHT22;11481;53.694;9.910;2024-03-02T00:08:24;10.40;99.90
22629;DHT22;11481;53.694;9.910;2024-03-02T00:10:58;10.50;99.90
22629;DHT22;11481;53.694;9.910;2024-03-02T00:13:26;10.80;99.90
22629;DHT22;11481;53.694;9.910;2024-03-02T00:15:57;11.10;99.90
22629;DHT22;11481;53.694;9.910;2024-03-02T00:18:31;10.40;99.90
22629;DHT22;11481;53.694;9.910;2024-03-02T00:20:59;10.50;99.90
22629;DHT22;11481;53.694;9.910;2024-03-02T00:23:30;10.60;99.90
22629;DHT22;11481;53.694;9.910;2024-03-02T00:25:58;10.50;99.90
22629;DHT22;11481;53.694;9.910;2024-03-02T00:28:35;10.40;99.90
22629;DHT22;11481;53.694;9.910;2024-03-02T00:31:11;10.40;99.90
22629;DHT22;11481;53.694;9.910;2024-03-02T00:33:45;10.40;99.90
22629;DHT22;11481;53.694;9.910;2024-03-02T00:36:15;10.40;99.90
22629;DHT22;11481;53.694;9.910;2024-03-02T00:38:49;10.30;99.90
22629;DHT22;11481;53.694;9.910;2024-03-02T00:41:22;10.40;99.90
22629;DHT22;11481;53.694;9.910;2024-03-02T00:43:59;10.30;99.90
22629;DHT22;11481;53.694;9.910;2024-03-02T00:46:36;11.40;99.90
22629;DHT22;11481;53.694;9.910;2024-03-02T00:49:25;10.30;99.90
22629;DHT22;11481;53.694;9.910;2024-03-02T00:51:54;10.40;99.90
22629;DHT22;11481;53.694;9.910;2024-03-02T00:54:22;10.30;99.90
22629;DHT22;11481;53.694;9.910;2024-03-02T00:56:52;10.30;99.90
22629;DHT22;11481;53.694;9.910;2024-03-02T00:59:19;10.30;99.90
22629;DHT22;11481;53.694;9.910;2024-03-02T01:01:47;10.30;99.90
22629;DHT22;11481;53.694;9.910;2024-03-02T01:04:14;12.20;99.90
22629;DHT22;11481;53.694;9.910;2024-03-02T01:06:44;10.30;99.90
22629;DHT22;11481;53.694;9.910;2024-03-02T01:09:11;10.30;99.90
22629;DHT22;11481;53.694;9.910;2024-03-02T01:11:39;9.60;99.90
22629;DHT22;11481;53.694;9.910;2024-03-02T01:14:06;10.40;99.90
22629;DHT22;11481;53.694;9.910;2024-03-02T01:16:33;10.70;99.90
22629;DHT22;11481;53.694;9.910;2024-03-02T01:19:00;10.20;99.90
22629;DHT22;11481;53.694;9.910;2024-03-02T01:21:27;10.30;99.90
22629;DHT22;11481;53.694;9.910;2024-03-02T01:23:54;10.30;99.90
22629;DHT22;11481;53.694;9.910;2024-03-02T01:26:21;10.30;99.90
22629;DHT22;11481;53.694;9.910;2024-03-02T01:28:48;10.30;99.90
22629;DHT22;11481;53.694;9.910;2024-03-02T01:31:15;10.20;99.90
22629;DHT22;11481;53.694;9.910;2024-03-02T01:33:42;10.30;99.90
22629;DHT22;11481;53.694;9.910;2024-03-02T01:36:09;10.30;99.90
22629;DHT22;11481;53.694;9.910;2024-03-02T01:38:35;10.30;99.90
22629;DHT22;11481;53.694;9.910;2024-03-02T01:41:02;10.20;99.90
22629;DHT22;11481;53.694;9.910;2024-03-02T01:43:29;10.30;99.90
22629;DHT22;11481;53.694;9.910;2024-03-02T01:45:56;10.10;99.90
22629;DHT22;11481;53.694;9.910;2024-03-02T01:48:24;9.60;99.90
22629;DHT22;11481;53.694;9.910;2024-03-02T01:50:51;10.10;99.90
22629;DHT22;11481;53.694;9.910;2024-03-02T01:53:18;9.70;99.90
22629;DHT22;11481;53.694;9.910;2024-03-02T01:55:46;10.40;99.90
22629;DHT22;11481;53.694;9.910;2024-03-02T01:58:12;10.10;99.90
22629;DHT22;11481;53.694;9.910;2024-03-02T02:00:39;10.20;99.90
22629;DHT22;11481;53.694;9.910;2024-03-02T02:03:06;9.70;99.90
22629;DHT22;11481;53.694;9.910;2024-03-02T02:05:34;10.40;99.90
22629;DHT22;11481;53.694;9.910;2024-03-02T02:08:02;8.10;99.90
22629;DHT22;11481;53.694;9.910;2024-03-02T02:10:29;10.10;99.90
22629;DHT22;11481;53.694;9.910;2024-03-02T02:12:56;10.20;99.90
22629;DHT22;11481;53.694;9.910;2024-03-02T02:15:28;10.30;99.90
22629;DHT22;11481;53.694;9.910;2024-03-02T02:17:55;10.30;99.90
22629;DHT22;11481;53.694;9.910;2024-03-02T02:20:23;10.10;99.90
22629;DHT22;11481;53.694;9.910;2024-03-02T02:23:02;10.10;99.90
22629;DHT22;11481;53.694;9.910;2024-03-02T02:25:32;10.10;99.90
22629;DHT22;11481;53.694;9.910;2024-03-02T02:27:59;10.10;99.90
22629;DHT22;11481;53.694;9.910;2024-03-02T02:30:27;9.90;99.90
22629;DHT22;11481;53.694;9.910;2024-03-02T02:32:55;9.90;99.90
22629;DHT22;11481;53.694;9.910;2024-03-02T02:35:22;10.00;99.90
22629;DHT22;11481;53.694;9.910;2024-03-02T02:37:52;10.00;99.90
22629;DHT22;11481;53.694;9.910;2024-03-02T02:40:19;10.00;99.90
22629;DHT22;11481;53.694;9.910;2024-03-02T02:42:46;9.90;99.90
22629;DHT22;11481;53.694;9.910;2024-03-02T02:45:14;10.00;99.90
22629;DHT22;11481;53.694;9.910;2024-03-02T02:47:42;10.00;99.90
22629;DHT22;11481;53.694;9.910;2024-03-02T02:50:11;9.90;99.90
22629;DHT22;11481;53.694;9.910;2024-03-02T02:52:40;9.90;99.90
22629;DHT22;11481;53.694;9.910;2024-03-02T02:55:11;9.90;99.90
22629;DHT22;11481;53.694;9.910;2024-03-02T02:57:42;9.90;99.90
22629;DHT22;11481;53.694;9.910;2024-03-02T03:00:12;9.90;99.90
22629;DHT22;11481;53.694;9.910;2024-03-02T03:02:46;9.90;99.90
22629;DHT22;11481;53.694;9.910;2024-03-02T03:05:15;9.90;99.90
22629;DHT22;11481;53.694;9.910;2024-03-02T03:07:42;11.50;99.90
22629;DHT22;11481;53.694;9.910;2024-03-02T03:10:11;11.70;99.90
22629;DHT22;11481;53.694;9.910;2024-03-02T03:12:37;10.30;99.90
22629;DHT22;11481;53.694;9.910;2024-03-02T03:15:05;9.80;99.90
22629;DHT22;11481;53.694;9.910;2024-03-02T03:17:33;9.80;99.90
22629;DHT22;11481;53.694;9.910;2024-03-02T03:20:02;9.90;99.90
22629;DHT22;11481;53.694;9.910;2024-03-02T03:22:31;9.90;99.90
22629;DHT22;11481;53.694;9.910;2024-03-02T03:25:02;9.80;99.90
22629;DHT22;11481;53.694;9.910;2024-03-02T03:27:30;9.80;99.90
22629;DHT22;11481;53.694;9.910;2024-03-02T03:29:57;9.80;99.90
22629;DHT22;11481;53.694;9.910;2024-03-02T03:32:23;11.70;99.90
22629;DHT22;11481;53.694;9.910;2024-03-02T03:34:51;10.40;99.90
22629;DHT22;11481;53.694;9.910;2024-03-02T03:37:20;9.70;99.90
22629;DHT22;11481;53.694;9.910;2024-03-02T03:39:47;10.40;99.90
22629;DHT22;11481;53.694;9.910;2024-03-02T03:42:14;9.80;99.90
22629;DHT22;11481;53.694;9.910;2024-03-02T03:44:41;9.60;99.90
22629;DHT22;11481;53.694;9.910;2024-03-02T03:47:08;10.00;99.90
22629;DHT22;11481;53.694;9.910;2024-03-02T03:49:35;9.80;99.90
22629;DHT22;11481;53.694;9.910;2024-03-02T03:52:02;9.70;99.90
22629;DHT22;11481;53.694;9.910;2024-03-02T03:54:29;9.70;99.90
22629;DHT22;11481;53.694;9.910;2024-03-02T03:56:55;9.70;99.90
22629;DHT22;11481;53.694;9.910;2024-03-02T03:59:22;9.70;99.90
22629;DHT22;11481;53.694;9.910;2024-03-02T04:01:50;9.60;99.90
22629;DHT22;11481;53.694;9.910;2024-03-02T04:04:17;9.70;99.90
22629;DHT22;11481;53.694;9.910;2024-03-02T04:06:44;9.60;99.90
22629;DHT22;11481;53.694;9.910;2024-03-02T04:09:11;9.60;99.90
22629;DHT22;11481;53.694;9.910;2024-03-02T04:11:37;9.30;99.90
22629;DHT22;11481;53.694;9.910;2024-03-02T04:14:04;9.60;99.90
22629;DHT22;11481;53.694;9.910;2024-03-02T04:16:32;9.50;99.90
22629;DHT22;11481;53.694;9.910;2024-03-02T04:18:59;9.50;99.90
22629;DHT22;11481;53.694;9.910;2024-03-02T04:21:27;9.60;99.90
22629;DHT22;11481;53.694;9.910;2024-03-02T04:23:53;9.60;99.90
22629;DHT22;11481;53.694;9.910;2024-03-02T04:26:24;9.60;99.90
22629;DHT22;11481;53.694;9.910;2024-03-02T04:28:52;9.20;99.90
22629;DHT22;11481;53.694;9.910;2024-03-02T04:31:19;9.60;99.90
22629;DHT22;11481;53.694;9.910;2024-03-02T04:33:46;9.60;99.90
22629;DHT22;11481;53.694;9.910;2024-03-02T04:36:13;9.50;99.90
22629;DHT22;11481;53.694;9.910;2024-03-02T04:38:40;9.50;99.90
22629;DHT22;11481;53.694;9.910;2024-03-02T04:41:07;9.50;99.90
22629;DHT22;11481;53.694;9.910;2024-03-02T04:43:34;9.50;99.90
22629;DHT22;11481;53.694;9.910;2024-03-02T04:46:01;9.70;99.90
22629;DHT22;11481;53.694;9.910;2024-03-02T04:48:28;9.30;99.90
22629;DHT22;11481;53.694;9.910;2024-03-02T04:50:55;9.50;99.90
22629;DHT22;11481;53.694;9.910;2024-03-02T04:53:22;9.50;99.90
22629;DHT22;11481;53.694;9.910;2024-03-02T04:55:49;9.50;99.90
22629;DHT22;11481;53.694;9.910;2024-03-02T04:58:21;9.50;99.90
22629;DHT22;11481;53.694;9.910;2024-03-02T05:00:48;9.50;99.90
22629;DHT22;11481;53.694;9.910;2024-03-02T05:03:15;9.50;99.90
22629;DHT22;11481;53.694;9.910;2024-03-02T05:05:42;10.30;99.90
22629;DHT22;11481;53.694;9.910;2024-03-02T05:08:09;9.50;99.90
22629;DHT22;11481;53.694;9.910;2024-03-02T05:10:38;9.70;99.90
22629;DHT22;11481;53.694;9.910;2024-03-02T05:13:05;10.30;99.90
22629;DHT22;11481;53.694;9.910;2024-03-02T05:15:32;8.80;99.90
22629;DHT22;11481;53.694;9.910;2024-03-02T05:17:59;8.90;99.90
22629;DHT22;11481;53.694;9.910;2024-03-02T05:20:27;9.30;99.90
22629;DHT22;11481;53.694;9.910;2024-03-02T05:22:53;9.30;99.90
22629;DHT22;11481;53.694;9.910;2024-03-02T05:25:20;9.30;99.90
22629;DHT22;11481;53.694;9.910;2024-03-02T05:27:48;9.40;99.90
22629;DHT22;11481;53.694;9.910;2024-03-02T05:30:15;9.40;99.90
22629;DHT22;11481;53.694;9.910;2024-03-02T05:32:42;9.20;99.90
22629;DHT22;11481;53.694;9.910;2024-03-02T05:35:09;9.30;99.90
22629;DHT22;11481;53.694;9.910;2024-03-02T05:37:37;9.30;99.90
22629;DHT22;11481;53.694;9.910;2024-03-02T05:40:06;10.30;99.90
22629;DHT22;11481;53.694;9.910;2024-03-02T05:42:33;9.30;99.90
22629;DHT22;11481;53.694;9.910;2024-03-02T05:45:00;9.20;99.90
22629;DHT22;11481;53.694;9.910;2024-03-02T05:47:27;9.30;99.90
22629;DHT22;11481;53.694;9.910;2024-03-02T05:49:54;9.30;99.90
22629;DHT22;11481;53.694;9.910;2024-03-02T05:52:21;9.30;99.90
22629;DHT22;11481;53.694;9.910;2024-03-02T05:54:48;9.30;99.90
22629;DHT22;11481;53.694;9.910;2024-03-02T05:57:16;9.30;99.90
22629;DHT22;11481;53.694;9.910;2024-03-02T06:00:03;9.20;99.90
22629;DHT22;11481;53.694;9.910;2024-03-02T06:02:34;9.30;99.90
22629;DHT22;11481;53.694;9.910;2024-03-02T06:05:06;11.00;99.90
22629;DHT22;11481;53.694;9.910;2024-03-02T06:07:33;9.20;99.90
22629;DHT22;11481;53.694;9.910;2024-03-02T06:10:00;9.00;99.90
22629;DHT22;11481;53.694;9.910;2024-03-02T06:12:27;9.10;99.90
22629;DHT22;11481;53.694;9.910;2024-03-02T06:14:54;8.80;99.90
22629;DHT22;11481;53.694;9.910;2024-03-02T06:17:20;9.00;99.90
22629;DHT22;11481;53.694;9.910;2024-03-02T06:19:47;9.10;99.90
22629;DHT22;11481;53.694;9.910;2024-03-02T06:22:14;9.80;99.90
22629;DHT22;11481;53.694;9.910;2024-03-02T06:24:41;10.80;99.90
22629;DHT22;11481;53.694;9.910;2024-03-02T06:27:08;11.40;99.90
22629;DHT22;11481;53.694;9.910;2024-03-02T06:29:35;8.80;99.90
22629;DHT22;11481;53.694;9.910;2024-03-02T06:32:02;10.30;99.90
22629;DHT22;11481;53.694;9.910;2024-03-02T06:34:29;9.10;99.90
22629;DHT22;11481;53.694;9.910;2024-03-02T06:36:56;10.40;99.90
22629;DHT22;11481;53.694;9.910;2024-03-02T06:39:22;9.10;99.90
22629;DHT22;11481;53.694;9.910;2024-03-02T06:41:49;9.10;99.90
22629;DHT22;11481;53.694;9.910;2024-03-02T06:44:16;9.00;99.90
22629;DHT22;11481;53.694;9.910;2024-03-02T06:46:43;9.40;99.90
22629;DHT22;11481;53.694;9.910;2024-03-02T06:49:10;9.10;99.90
22629;DHT22;11481;53.694;9.910;2024-03-02T06:51:39;9.10;99.90
22629;DHT22;11481;53.694;9.910;2024-03-02T06:54:06;9.10;99.90
22629;DHT22;11481;53.694;9.910;2024-03-02T06:56:33;10.90;99.90
22629;DHT22;11481;53.694;9.910;2024-03-02T06:59:00;10.60;99.90
22629;DHT22;11481;53.694;9.910;2024-03-02T07:01:26;8.70;99.90
22629;DHT22;11481;53.694;9.910;2024-03-02T07:03:54;8.70;99.90
22629;DHT22;11481;53.694;9.910;2024-03-02T07:06:22;8.80;99.90
22629;DHT22;11481;53.694;9.910;2024-03-02T07:08:48;10.60;99.90
22629;DHT22;11481;53.694;9.910;2024-03-02T07:11:15;9.90;99.90
22629;DHT22;11481;53.694;9.910;2024-03-02T07:13:45;8.60;99.90
22629;DHT22;11481;53.694;9.910;2024-03-02T07:16:12;11.30;99.90
22629;DHT22;11481;53.694;9.910;2024-03-02T07:18:55;8.90;99.90
22629;DHT22;11481;53.694;9.910;2024-03-02T07:21:23;9.80;99.90
22629;DHT22;11481;53.694;9.910;2024-03-02T07:23:50;10.00;99.90
22629;DHT22;11481;53.694;9.910;2024-03-02T07:26:18;8.90;99.90
22629;DHT22;11481;53.694;9.910;2024-03-02T07:28:48;10.10;99.90
22629;DHT22;11481;53.694;9.910;2024-03-02T07:31:15;11.80;99.90
22629;DHT22;11481;53.694;9.910;2024-03-02T07:33:44;11.30;99.90
22629;DHT22;11481;53.694;9.910;2024-03-02T07:36:12;9.90;99.90
22629;DHT22;11481;53.694;9.910;2024-03-02T07:38:39;8.80;99.90
22629;DHT22;11481;53.694;9.910;2024-03-02T07:41:08;10.70;99.90
22629;DHT22;11481;53.694;9.910;2024-03-02T07:43:35;9.20;99.90
22629;DHT22;11481;53.694;9.910;2024-03-02T07:46:02;9.20;99.90
22629;DHT22;11481;53.694;9.910;2024-03-02T07:48:30;9.40;99.90
22629;DHT22;11481;53.694;9.910;2024-03-02T07:50:57;9.30;99.90
22629;DHT22;11481;53.694;9.910;2024-03-02T07:53:24;9.30;99.90
22629;DHT22;11481;53.694;9.910;2024-03-02T07:55:51;9.50;99.90
22629;DHT22;11481;53.694;9.910;2024-03-02T07:58:18;9.70;99.90
22629;DHT22;11481;53.694;9.910;2024-03-02T08:00:46;9.30;99.90
22629;DHT22;11481;53.694;9.910;2024-03-02T08:03:13;12.30;99.90
22629;DHT22;11481;53.694;9.910;2024-03-02T08:05:41;10.30;99.90
22629;DHT22;11481;53.694;9.910;2024-03-02T08:08:08;9.00;99.90
22629;DHT22;11481;53.694;9.910;2024-03-02T08:10:34;8.60;99.90
22629;DHT22;11481;53.694;9.910;2024-03-02T08:13:02;9.50;99.90
22629;DHT22;11481;53.694;9.910;2024-03-02T08:15:29;9.70;99.90
22629;DHT22;11481;53.694;9.910;2024-03-02T08:17:56;9.50;99.90
22629;DHT22;11481;53.694;9.910;2024-03-02T08:20:23;9.80;99.90
22629;DHT22;11481;53.694;9.910;2024-03-02T08:22:50;9.50;99.90
22629;DHT22;11481;53.694;9.910;2024-03-02T08:25:17;9.70;99.90
22629;DHT22;11481;53.694;9.910;2024-03-02T08:27:45;9.70;99.90
22629;DHT22;11481;53.694;9.910;2024-03-02T08:30:12;9.70;99.90
22629;DHT22;11481;53.694;9.910;2024-03-02T08:32:39;9.70;99.90
22629;DHT22;11481;53.694;9.910;2024-03-02T08:35:07;9.60;99.90
22629;DHT22;11481;53.694;9.910;2024-03-02T08:37:34;9.80;99.90
22629;DHT22;11481;53.694;9.910;2024-03-02T08:40:01;9.80;99.90
22629;DHT22;11481;53.694;9.910;2024-03-02T08:42:28;9.60;99.90
22629;DHT22;11481;53.694;9.910;2024-03-02T08:44:54;9.80;99.90
22629;DHT22;11481;53.694;9.910;2024-03-02T08:47:21;9.60;99.90
22629;DHT22;11481;53.694;9.910;2024-03-02T08:49:48;9.80;99.90
22629;DHT22;11481;53.694;9.910;2024-03-02T08:52:15;9.50;99.90
22629;DHT22;11481;53.694;9.910;2024-03-02T08:54:42;9.60;99.90
22629;DHT22;11481;53.694;9.910;2024-03-02T08:57:08;9.90;99.90
22629;DHT22;11481;53.694;9.910;2024-03-02T08:59:35;9.90;99.90
22629;DHT22;11481;53.694;9.910;2024-03-02T09:02:02;10.00;99.90
22629;DHT22;11481;53.694;9.910;2024-03-02T09:04:29;10.10;99.90
22629;DHT22;11481;53.694;9.910;2024-03-02T09:07:01;10.10;99.90
22629;DHT22;11481;53.694;9.910;2024-03-02T09:09:28;10.30;99.90
22629;DHT22;11481;53.694;9.910;2024-03-02T09:11:54;10.40;99.90
22629;DHT22;11481;53.694;9.910;2024-03-02T09:14:24;12.00;99.90
22629;DHT22;11481;53.694;9.910;2024-03-02T09:16:51;13.40;99.90
22629;DHT22;11481;53.694;9.910;2024-03-02T09:19:17;10.50;99.90
22629;DHT22;11481;53.694;9.910;2024-03-02T09:21:45;10.60;99.90
22629;DHT22;11481;53.694;9.910;2024-03-02T09:24:12;10.70;99.90
22629;DHT22;11481;53.694;9.910;2024-03-02T09:26:43;10.70;99.90
22629;DHT22;11481;53.694;9.910;2024-03-02T09:29:10;10.30;99.90
22629;DHT22;11481;53.694;9.910;2024-03-02T09:31:41;11.40;99.90
22629;DHT22;11481;53.694;9.910;2024-03-02T09:34:08;10.40;99.90
22629;DHT22;11481;53.694;9.910;2024-03-02T09:36:35;11.20;99.90
22629;DHT22;11481;53.694;9.910;2024-03-02T09:39:02;11.30;99.90
22629;DHT22;11481;53.694;9.910;2024-03-02T09:41:32;11.40;99.90
22629;DHT22;11481;53.694;9.910;2024-03-02T09:44:00;11.30;99.90
22629;DHT22;11481;53.694;9.910;2024-03-02T09:46:27;11.50;99.90
22629;DHT22;11481;53.694;9.910;2024-03-02T09:48:54;11.80;99.90
22629;DHT22;11481;53.694;9.910;2024-03-02T09:51:21;11.50;99.90
22629;DHT22;11481;53.694;9.910;2024-03-02T09:53:49;14.20;99.90
22629;DHT22;11481;53.694;9.910;2024-03-02T09:56:16;13.70;99.90
22629;DHT22;11481;53.694;9.910;2024-03-02T09:58:45;11.40;99.90
22629;DHT22;11481;53.694;9.910;2024-03-02T10:01:11;11.60;99.90
22629;DHT22;11481;53.694;9.910;2024-03-02T10:03:39;13.10;99.90
22629;DHT22;11481;53.694;9.910;2024-03-02T10:06:28;11.60;99.90
22629;DHT22;11481;53.694;9.910;2024-03-02T10:08:56;12.00;99.90
22629;DHT22;11481;53.694;9.910;2024-03-02T10:11:33;12.10;99.90
22629;DHT22;11481;53.694;9.910;2024-03-02T10:14:07;11.90;99.90
22629;DHT22;11481;53.694;9.910;2024-03-02T10:16:39;12.10;99.90
22629;DHT22;11481;53.694;9.910;2024-03-02T10:24:19;12.30;99.90
22629;DHT22;11481;53.694;9.910;2024-03-02T10:26:47;12.60;99.90
22629;DHT22;11481;53.694;9.910;2024-03-02T10:29:14;12.60;99.90
22629;DHT22;11481;53.694;9.910;2024-03-02T10:31:45;12.60;99.90
22629;DHT22;11481;53.694;9.910;2024-03-02T10:34:13;12.40;99.90
22629;DHT22;11481;53.694;9.910;2024-03-02T10:36:41;12.60;99.90
22629;DHT22;11481;53.694;9.910;2024-03-02T10:39:09;12.40;99.90
22629;DHT22;11481;53.694;9.910;2024-03-02T10:41:38;12.60;99.90
22629;DHT22;11481;53.694;9.910;2024-03-02T10:44:07;12.50;99.90
22629;DHT22;11481;53.694;9.910;2024-03-02T10:46:35;12.70;99.90
22629;DHT22;11481;53.694;9.910;2024-03-02T10:49:04;13.40;99.90
22629;DHT22;11481;53.694;9.910;2024-03-02T10:51:35;12.70;99.90
22629;DHT22;11481;53.694;9.910;2024-03-02T10:54:04;15.30;99.90
22629;DHT22;11481;53.694;9.910;2024-03-02T10:59:12;13.00;99.90
22629;DHT22;11481;53.694;9.910;2024-03-02T11:01:43;13.00;99.90
22629;DHT22;11481;53.694;9.910;2024-03-02T11:04:16;13.00;99.90
22629;DHT22;11481;53.694;9.910;2024-03-02T11:07:00;15.00;99.90
22629;DHT22;11481;53.694;9.910;2024-03-02T11:09:33;13.00;99.90
22629;DHT22;11481;53.694;9.910;2024-03-02T11:12:03;13.00;99.90
22629;DHT22;11481;53.694;9.910;2024-03-02T11:14:33;13.10;99.90
22629;DHT22;11481;53.694;9.910;2024-03-02T11:17:02;14.10;99.90
22629;DHT22;11481;53.694;9.910;2024-03-02T11:19:30;13.00;99.90
22629;DHT22;11481;53.694;9.910;2024-03-02T11:21:58;12.90;99.90
22629;DHT22;11481;53.694;9.910;2024-03-02T11:27:06;13.20;99.90
22629;DHT22;11481;53.694;9.910;2024-03-02T11:29:43;13.40;99.90
22629;DHT22;11481;53.694;9.910;2024-03-02T11:34:46;12.40;99.90
22629;DHT22;11481;53.694;9.910;2024-03-02T11:37:13;13.40;99.90
22629;DHT22;11481;53.694;9.910;2024-03-02T11:39:43;15.10;99.90
22629;DHT22;11481;53.694;9.910;2024-03-02T11:42:11;15.70;99.90
22629;DHT22;11481;53.694;9.910;2024-03-02T11:44:46;13.50;99.90
22629;DHT22;11481;53.694;9.910;2024-03-02T11:47:15;13.60;99.90
22629;DHT22;11481;53.694;9.910;2024-03-02T11:49:49;13.60;99.90
22629;DHT22;11481;53.694;9.910;2024-03-02T11:52:18;13.60;99.90
22629;DHT22;11481;53.694;9.910;2024-03-02T11:54:46;13.50;99.90
22629;DHT22;11481;53.694;9.910;2024-03-02T11:57:15;14.90;99.90
22629;DHT22;11481;53.694;9.910;2024-03-02T11:59:42;13.60;99.90
22629;DHT22;11481;53.694;9.910;2024-03-02T12:02:18;13.70;99.90
22629;DHT22;11481;53.694;9.910;2024-03-02T12:04:45;13.60;99.90
22629;DHT22;11481;53.694;9.910;2024-03-02T12:07:18;13.70;99.90
22629;DHT22;11481;53.694;9.910;2024-03-02T12:09:46;13.70;99.90
22629;DHT22;11481;53.694;9.910;2024-03-02T12:12:13;13.80;99.90
22629;DHT22;11481;53.694;9.910;2024-03-02T12:14:50;15.90;99.90
22629;DHT22;11481;53.694;9.910;2024-03-02T12:17:17;13.70;99.90
22629;DHT22;11481;53.694;9.910;2024-03-02T12:19:45;12.00;99.90
22629;DHT22;11481;53.694;9.910;2024-03-02T12:22:12;13.80;99.90
22629;DHT22;11481;53.694;9.910;2024-03-02T12:24:39;16.20;99.90
22629;DHT22;11481;53.694;9.910;2024-03-02T12:27:07;14.10;99.90
22629;DHT22;11481;53.694;9.910;2024-03-02T12:29:34;15.80;99.90
22629;DHT22;11481;53.694;9.910;2024-03-02T12:32:01;14.10;99.90
22629;DHT22;11481;53.694;9.910;2024-03-02T12:34:29;13.80;99.90
22629;DHT22;11481;53.694;9.910;2024-03-02T12:36:55;13.90;99.90
22629;DHT22;11481;53.694;9.910;2024-03-02T12:39:22;13.70;99.90
22629;DHT22;11481;53.694;9.910;2024-03-02T12:41:50;13.70;99.90
22629;DHT22;11481;53.694;9.910;2024-03-02T12:44:18;13.80;99.90
22629;DHT22;11481;53.694;9.910;2024-03-02T12:46:46;14.80;99.90
22629;DHT22;11481;53.694;9.910;2024-03-02T12:49:16;16.50;99.90
22629;DHT22;11481;53.694;9.910;2024-03-02T12:51:43;13.80;99.90
22629;DHT22;11481;53.694;9.910;2024-03-02T12:54:11;13.40;99.90
22629;DHT22;11481;53.694;9.910;2024-03-02T12:56:38;15.90;99.90
22629;DHT22;11481;53.694;9.910;2024-03-02T12:59:06;14.10;99.90
22629;DHT22;11481;53.694;9.910;2024-03-02T13:01:33;13.80;99.90
22629;DHT22;11481;53.694;9.910;2024-03-02T13:04:00;13.90;99.90
22629;DHT22;11481;53.694;9.910;2024-03-02T13:06:27;16.80;99.90
22629;DHT22;11481;53.694;9.910;2024-03-02T13:08:55;14.90;99.90
22629;DHT22;11481;53.694;9.910;2024-03-02T13:11:23;14.00;99.90
22629;DHT22;11481;53.694;9.910;2024-03-02T13:13:51;14.90;99.90
22629;DHT22;11481;53.694;9.910;2024-03-02T13:16:18;14.00;99.90
22629;DHT22;11481;53.694;9.910;2024-03-02T13:18:55;15.20;99.90
22629;DHT22;11481;53.694;9.910;2024-03-02T13:21:22;14.10;99.90
22629;DHT22;11481;53.694;9.910;2024-03-02T13:23:49;14.10;99.90
22629;DHT22;11481;53.694;9.910;2024-03-02T13:26:16;14.70;99.90
22629;DHT22;11481;53.694;9.910;2024-03-02T13:28:43;14.10;99.90
22629;DHT22;11481;53.694;9.910;2024-03-02T13:31:10;14.80;99.90
22629;DHT22;11481;53.694;9.910;2024-03-02T13:33:37;15.20;99.90
22629;DHT22;11481;53.694;9.910;2024-03-02T13:36:05;14.30;99.90
22629;DHT22;11481;53.694;9.910;2024-03-02T13:38:32;14.70;99.90
22629;DHT22;11481;53.694;9.910;2024-03-02T13:40:59;15.60;99.90
22629;DHT22;11481;53.694;9.910;2024-03-02T13:43:27;15.10;99.90
22629;DHT22;11481;53.694;9.910;2024-03-02T13:45:54;15.80;99.90
22629;DHT22;11481;53.694;9.910;2024-03-02T13:48:21;15.40;99.90
22629;DHT22;11481;53.694;9.910;2024-03-02T13:50:48;15.40;99.90
22629;DHT22;11481;53.694;9.910;2024-03-02T13:53:15;17.00;99.90
22629;DHT22;11481;53.694;9.910;2024-03-02T13:55:42;17.50;99.90
22629;DHT22;11481;53.694;9.910;2024-03-02T13:58:09;17.00;99.90
22629;DHT22;11481;53.694;9.910;2024-03-02T14:00:37;14.70;99.90
22629;DHT22;11481;53.694;9.910;2024-03-02T14:03:08;15.80;99.90
22629;DHT22;11481;53.694;9.910;2024-03-02T14:05:35;18.30;99.90
22629;DHT22;11481;53.694;9.910;2024-03-02T14:08:03;16.60;99.90
22629;DHT22;11481;53.694;9.910;2024-03-02T14:10:30;15.60;99.90
22629;DHT22;11481;53.694;9.910;2024-03-02T14:12:57;17.80;99.90
22629;DHT22;11481;53.694;9.910;2024-03-02T14:15:24;15.50;99.90
22629;DHT22;11481;53.694;9.910;2024-03-02T14:17:51;18.30;99.90
22629;DHT22;11481;53.694;9.910;2024-03-02T14:20:18;15.50;99.90
22629;DHT22;11481;53.694;9.910;2024-03-02T14:22:49;16.90;99.90
22629;DHT22;11481;53.694;9.910;2024-03-02T14:25:17;15.70;99.90
22629;DHT22;11481;53.694;9.910;2024-03-02T14:27:44;15.70;99.90
22629;DHT22;11481;53.694;9.910;2024-03-02T14:30:15;15.70;99.90
22629;DHT22;11481;53.694;9.910;2024-03-02T14:32:42;16.30;99.90
22629;DHT22;11481;53.694;9.910;2024-03-02T14:35:09;17.50;99.90
22629;DHT22;11481;53.694;9.910;2024-03-02T14:37:37;17.90;99.90
22629;DHT22;11481;53.694;9.910;2024-03-02T14:40:04;17.20;99.90
22629;DHT22;11481;53.694;9.910;2024-03-02T14:42:33;15.60;99.90
22629;DHT22;11481;53.694;9.910;2024-03-02T14:44:59;16.70;99.90
22629;DHT22;11481;53.694;9.910;2024-03-02T14:47:26;15.60;99.90
22629;DHT22;11481;53.694;9.910;2024-03-02T14:49:53;16.20;99.90
22629;DHT22;11481;53.694;9.910;2024-03-02T14:52:20;15.60;99.90
22629;DHT22;11481;53.694;9.910;2024-03-02T14:54:47;15.60;99.90
22629;DHT22;11481;53.694;9.910;2024-03-02T14:57:14;15.60;99.90
22629;DHT22;11481;53.694;9.910;2024-03-02T14:59:41;16.60;99.90
22629;DHT22;11481;53.694;9.910;2024-03-02T15:02:08;16.90;99.90
22629;DHT22;11481;53.694;9.910;2024-03-02T15:04:35;15.40;99.90
22629;DHT22;11481;53.694;9.910;2024-03-02T15:07:02;17.30;99.90
22629;DHT22;11481;53.694;9.910;2024-03-02T15:09:28;15.90;99.90
22629;DHT22;11481;53.694;9.910;2024-03-02T15:11:55;15.50;99.90
22629;DHT22;11481;53.694;9.910;2024-03-02T15:14:22;17.30;99.90
22629;DHT22;11481;53.694;9.910;2024-03-02T15:16:49;15.50;99.90
22629;DHT22;11481;53.694;9.910;2024-03-02T15:19:16;15.50;99.90
22629;DHT22;11481;53.694;9.910;2024-03-02T15:21:43;17.30;99.90
22629;DHT22;11481;53.694;9.910;2024-03-02T15:24:09;15.50;99.90
22629;DHT22;11481;53.694;9.910;2024-03-02T15:26:36;15.60;99.90
22629;DHT22;11481;53.694;9.910;2024-03-02T15:29:03;15.70;99.90
22629;DHT22;11481;53.694;9.910;2024-03-02T15:31:30;17.00;99.90
22629;DHT22;11481;53.694;9.910;2024-03-02T15:33:57;15.60;99.90
22629;DHT22;11481;53.694;9.910;2024-03-02T15:36:25;15.70;99.90
22629;DHT22;11481;53.694;9.910;2024-03-02T15:38:52;17.40;99.90
22629;DHT22;11481;53.694;9.910;2024-03-02T15:41:19;15.80;99.90
22629;DHT22;11481;53.694;9.910;2024-03-02T15:43:46;15.80;99.90
22629;DHT22;11481;53.694;9.910;2024-03-02T15:46:13;15.80;99.90
22629;DHT22;11481;53.694;9.910;2024-03-02T15:48:40;17.30;99.90
22629;DHT22;11481;53.694;9.910;2024-03-02T15:51:07;15.70;99.90
22629;DHT22;11481;53.694;9.910;2024-03-02T15:53:35;18.30;99.90